createdAt,value
2023-03-23T00:00:45.688Z,266.95375
2023-03-23T00:05:47.492Z,256.1096
2023-03-23T00:10:49.036Z,249.532
2023-03-23T00:15:51.096Z,225.23655
2023-03-23T00:20:52.576Z,163.60915
2023-03-23T00:25:54.011Z,151.0466
2023-03-23T00:30:55.498Z,91.769
2023-03-23T00:35:57.235Z,89.24185
2023-03-23T00:40:59.250Z,87.3422
2023-03-23T00:46:01.020Z,83.48775
2023-03-23T00:51:02.557Z,82.74995
2023-03-23T00:56:03.938Z,78.8955
2023-03-23T01:01:05.623Z,73.08625
2023-03-23T01:06:06.957Z,68.43885
2023-03-23T01:11:13.165Z,62.81405
2023-03-23T01:16:14.732Z,61.09885
2023-03-23T01:21:16.305Z,53.15035
2023-03-23T01:26:17.872Z,49.48035
2023-03-23T01:31:19.373Z,42.6937
2023-03-23T01:36:20.876Z,35.7226
2023-03-23T01:41:22.332Z,29.7289
2023-03-23T01:46:23.756Z,24.89705
2023-03-23T01:51:36.576Z,17.92595
2023-03-23T01:56:41.831Z,15.23335
2023-03-23T02:01:43.280Z,6.30745
2023-03-23T02:06:44.772Z,4.59225
2023-03-23T02:11:46.352Z,1.54065
2023-03-23T02:16:47.770Z,1.53075
2023-03-23T02:21:49.191Z,0.47405
2023-03-23T02:26:50.617Z,0
2023-03-23T02:31:52.074Z,0
2023-03-23T02:36:53.588Z,0
2023-03-23T02:41:54.998Z,0
2023-03-23T02:46:56.693Z,0
2023-03-23T02:51:58.512Z,0
2023-03-23T02:57:00.049Z,0
2023-03-23T03:02:01.523Z,0
2023-03-23T03:07:03.856Z,0
2023-03-23T03:12:05.469Z,0
2023-03-23T03:17:06.935Z,0
2023-03-23T03:22:08.858Z,0
2023-03-23T03:27:10.730Z,0
2023-03-23T03:32:12.186Z,0
2023-03-23T03:37:13.774Z,0
2023-03-23T03:42:15.190Z,0
2023-03-23T03:47:16.611Z,0
2023-03-23T03:52:18.534Z,0
2023-03-23T03:57:20.053Z,0
2023-03-23T04:02:21.920Z,0
2023-03-23T04:07:23.451Z,0
2023-03-23T04:12:25.673Z,0
2023-03-23T04:17:27.053Z,0
2023-03-23T04:22:28.507Z,0
2023-03-23T04:27:30.319Z,0
2023-03-23T04:32:32.389Z,0
2023-03-23T04:37:33.814Z,0
2023-03-23T04:42:35.261Z,0
2023-03-23T04:47:36.786Z,0
2023-03-23T04:52:38.358Z,0
2023-03-23T04:57:40.935Z,0
2023-03-23T05:02:42.438Z,0
2023-03-23T05:07:44.078Z,0
2023-03-23T05:12:45.493Z,0
2023-03-23T05:17:46.942Z,0
2023-03-23T05:22:48.389Z,0
2023-03-23T05:27:49.847Z,0
2023-03-23T05:32:51.281Z,0
2023-03-23T05:37:52.720Z,0
2023-03-23T05:42:54.177Z,0
2023-03-23T05:47:55.586Z,0
2023-03-23T05:52:57.118Z,0
2023-03-23T05:57:58.585Z,0
2023-03-23T06:02:59.991Z,0
2023-03-23T06:08:01.487Z,0
2023-03-23T06:13:02.897Z,0
2023-03-23T06:18:04.300Z,0
2023-03-23T06:23:05.785Z,0
2023-03-23T06:28:07.197Z,0
2023-03-23T06:33:08.570Z,0
2023-03-23T06:38:10.016Z,0
2023-03-23T06:43:11.374Z,0
2023-03-23T06:48:12.756Z,0
2023-03-23T06:53:14.210Z,0
2023-03-23T06:58:15.653Z,0
2023-03-23T07:03:17.083Z,0
2023-03-23T07:08:18.578Z,0
2023-03-23T07:13:20.056Z,0
2023-03-23T07:18:22.939Z,0
2023-03-23T07:23:24.374Z,0
2023-03-23T07:28:25.812Z,0
2023-03-23T07:33:27.225Z,0
2023-03-23T07:38:28.641Z,0
2023-03-23T07:43:30.112Z,0
2023-03-23T07:48:31.591Z,0
2023-03-23T07:53:32.980Z,0
2023-03-23T07:58:34.319Z,0
2023-03-23T08:03:35.708Z,0
2023-03-23T08:08:37.090Z,0
2023-03-23T08:13:38.731Z,0
2023-03-23T08:18:40.257Z,0
2023-03-23T08:23:41.670Z,0
2023-03-23T08:28:43.092Z,0
2023-03-23T08:33:44.622Z,0
2023-03-23T08:38:46.178Z,0
2023-03-23T08:43:47.815Z,0
2023-03-23T08:48:49.309Z,0
2023-03-23T08:53:50.725Z,0
2023-03-23T08:58:52.186Z,0
2023-03-23T09:03:53.581Z,0
2023-03-23T09:08:54.975Z,0
2023-03-23T09:13:56.392Z,0
2023-03-23T09:18:57.791Z,0
2023-03-23T09:23:59.267Z,0
2023-03-23T09:29:00.704Z,0
2023-03-23T09:34:02.139Z,0
2023-03-23T09:39:03.569Z,0
2023-03-23T09:44:04.949Z,0
2023-03-23T09:49:06.405Z,0
2023-03-23T09:54:07.820Z,0
2023-03-23T09:59:09.211Z,0
2023-03-23T10:04:10.671Z,0
2023-03-23T10:09:12.072Z,0
2023-03-23T10:14:13.716Z,0
2023-03-23T10:19:15.136Z,0
2023-03-23T10:24:16.612Z,0
2023-03-23T10:29:17.986Z,0
2023-03-23T10:34:19.548Z,0
2023-03-23T10:39:20.972Z,0
2023-03-23T10:44:22.362Z,0
2023-03-23T10:49:23.871Z,0
2023-03-23T10:54:25.275Z,0
2023-03-23T10:59:26.738Z,0
2023-03-23T11:04:28.195Z,0
2023-03-23T11:09:29.773Z,0
2023-03-23T11:14:31.198Z,0
2023-03-23T11:19:32.730Z,0
2023-03-23T11:24:34.107Z,0
2023-03-23T11:29:35.547Z,0
2023-03-23T11:34:36.953Z,0
2023-03-23T11:39:38.418Z,0
2023-03-23T11:44:40.024Z,0
2023-03-23T11:49:41.432Z,0
2023-03-23T11:54:42.989Z,0
2023-03-23T11:59:44.451Z,0
2023-03-23T12:04:46.031Z,0
2023-03-23T12:09:47.468Z,0
2023-03-23T12:14:48.919Z,0
2023-03-23T12:19:50.593Z,0
2023-03-23T12:24:52.017Z,0
2023-03-23T12:29:53.504Z,0
2023-03-23T12:34:54.876Z,0
2023-03-23T12:39:56.428Z,0
2023-03-23T12:44:57.926Z,0
2023-03-23T12:49:59.416Z,0
2023-03-23T12:55:00.843Z,0
2023-03-23T13:00:02.208Z,0
2023-03-23T13:05:03.609Z,0
2023-03-23T13:10:05.381Z,0
2023-03-23T13:15:07.345Z,0
2023-03-23T13:20:08.851Z,0
2023-03-23T13:25:10.344Z,0
2023-03-23T13:30:11.778Z,0.4148
2023-03-23T13:35:13.322Z,0.88885
2023-03-23T13:40:14.751Z,2.01475
2023-03-23T13:45:16.191Z,4.59225
2023-03-23T13:50:17.629Z,4.91835
2023-03-23T13:55:19.265Z,9.1845
2023-03-23T14:00:20.694Z,14.38525
2023-03-23T14:05:22.449Z,18.6086
2023-03-23T14:10:23.872Z,26.13305
2023-03-23T14:15:25.472Z,32.86455
2023-03-23T14:20:27.025Z,39.59605
2023-03-23T14:25:28.565Z,48.4668
2023-03-23T14:30:30.151Z,53.05905
2023-03-23T14:35:31.835Z,61.74535
2023-03-23T14:40:33.266Z,69.45425
2023-03-23T14:45:34.747Z,74.23095
2023-03-23T14:50:36.140Z,212.31885
2023-03-23T14:55:37.559Z,388.8462
2023-03-23T15:00:38.961Z,422.38585
2023-03-23T15:05:40.420Z,254.50965
2023-03-23T15:10:41.941Z,237.325
2023-03-23T15:15:43.542Z,216.5259
2023-03-23T15:20:45.157Z,209.94845
2023-03-23T15:25:46.579Z,187.1937
2023-03-23T15:30:47.989Z,175.7571
2023-03-23T15:35:49.508Z,281.88415
2023-03-23T15:40:50.945Z,319.81205
2023-03-23T15:45:52.398Z,283.13155
2023-03-23T15:50:53.997Z,250.30295
2023-03-23T15:55:55.427Z,277.20585
2023-03-23T16:00:56.981Z,278.9835
2023-03-23T16:05:58.420Z,293.85715
2023-03-23T16:10:59.832Z,274.18365
2023-03-23T16:16:01.477Z,307.1306
2023-03-23T16:21:02.900Z,296.8198
2023-03-23T16:26:04.278Z,284.96845
2023-03-23T16:31:05.739Z,280.2279
2023-03-23T16:36:07.208Z,254.07205
2023-03-23T16:41:08.656Z,264.4907
2023-03-23T16:46:10.150Z,244.6461
2023-03-23T16:51:11.654Z,196.91525
2023-03-23T16:56:13.213Z,219.85935
2023-03-23T17:01:14.801Z,230.6126
2023-03-23T17:06:16.191Z,197.229
2023-03-23T17:11:17.621Z,270.6282
2023-03-23T17:16:19.181Z,265.9469
2023-03-23T17:21:20.672Z,266.00625
2023-03-23T17:26:22.114Z,305.70855
2023-03-23T17:31:23.659Z,293.2053
2023-03-23T17:36:25.226Z,280.8799
2023-03-23T17:41:26.723Z,266.57665
2023-03-23T17:46:28.310Z,300.07925
2023-03-23T17:51:29.768Z,290.8352
2023-03-23T17:56:31.173Z,317.67865
2023-03-23T18:01:32.662Z,288.10935
2023-03-23T18:06:34.134Z,302.3311
2023-03-23T18:11:35.630Z,357.618
2023-03-23T18:16:37.217Z,375.57305
2023-03-23T18:21:38.738Z,404.13495
2023-03-23T18:26:40.164Z,330.2413
2023-03-23T18:31:41.579Z,381.6764
2023-03-23T18:36:43.026Z,376.75795
2023-03-23T18:41:44.576Z,347.36645
2023-03-23T18:46:45.981Z,343.3962
2023-03-23T18:51:47.399Z,301.56075
2023-03-23T18:56:49.164Z,365.61755
2023-03-23T19:01:50.621Z,361.76585
2023-03-23T19:06:52.078Z,308.0197
2023-03-23T19:11:53.506Z,363.83975
2023-03-23T19:16:54.983Z,297.7682
2023-03-23T19:21:56.624Z,280.0721
2023-03-23T19:26:58.045Z,350.507
2023-03-23T19:31:59.553Z,275.09565
2023-03-23T19:37:05.720Z,247.24185
2023-03-23T19:42:08.709Z,257.16415
2023-03-23T19:47:10.638Z,249.2898
2023-03-23T19:52:13.616Z,261.22205
2023-03-23T19:57:16.812Z,267.19675
2023-03-23T20:02:18.373Z,295.3796
2023-03-23T20:07:21.392Z,260.94445
2023-03-23T20:12:22.975Z,288.2412
2023-03-23T20:17:24.400Z,321.81295
2023-03-23T20:22:25.896Z,288.31535
2023-03-23T20:27:27.295Z,326.11045
2023-03-23T20:32:28.765Z,315.34005
2023-03-23T20:37:32.032Z,281.8253
2023-03-23T20:42:33.889Z,312.9042
2023-03-23T20:47:35.331Z,316.2966
2023-03-23T20:52:37.041Z,278.21045
2023-03-23T20:57:43.540Z,270.85145
2023-03-23T21:02:44.993Z,251.22745
2023-03-23T21:07:46.496Z,262.75465
2023-03-23T21:12:48.044Z,361.766
2023-03-23T21:17:49.539Z,352.69965
2023-03-23T21:22:51.058Z,284.42845
2023-03-23T21:27:52.683Z,230.61075
2023-03-23T21:32:54.335Z,209.53015
2023-03-23T21:37:55.952Z,208.5356
2023-03-23T21:42:57.479Z,170.35815
2023-03-23T21:47:58.995Z,144.4267
2023-03-23T21:53:00.411Z,122.81175
2023-03-23T21:58:01.930Z,112.28095
2023-03-23T22:03:03.516Z,100.9382
2023-03-23T22:08:05.003Z,96.34595
2023-03-23T22:13:06.775Z,86.07375
2023-03-23T22:18:08.235Z,82.09
2023-03-23T22:23:09.708Z,82.90105
2023-03-23T22:28:11.115Z,76.1457
2023-03-23T22:33:12.569Z,68.6793
2023-03-23T22:38:13.975Z,65.73095
2023-03-23T22:43:15.365Z,66.83765
2023-03-23T22:48:16.739Z,62.485
2023-03-23T22:53:18.263Z,47.4059
2023-03-23T22:58:19.657Z,53.0946
2023-03-23T23:03:21.116Z,57.9537
2023-03-23T23:08:22.662Z,84.08615
2023-03-23T23:13:24.065Z,109.8038
2023-03-23T23:18:25.607Z,105.71505
2023-03-23T23:23:27.030Z,107.31505
2023-03-23T23:28:28.677Z,105.1818
2023-03-23T23:33:30.158Z,101.74485
2023-03-23T23:38:31.632Z,99.7301
2023-03-23T23:43:33.069Z,94.2192
2023-03-23T23:48:34.521Z,92.32605
2023-03-23T23:53:36.011Z,86.92185
2023-03-23T23:58:37.391Z,83.62075
